Time;durP1;ratioP1;P1;durP2;ratioP2;P2;SDS_P1;SDS_P2;PMS_P1;PMS_P2;Temp;Humidity;BMP_temperature;BMP_pressure;BME280_temperature;BME280_humidity;BME280_pressure;Samples;Min_cycle;Max_cycle;Signal;HPM_P1;HPM_P2
2020/12/27 00:01:08;;;;;;;6.53;3.83;;;;;;;3.77;92.26;100326.75;5222595;28;20021;-72
2020/12/27 00:03:42;;;;;;;5.03;3.88;;;;;;;3.71;93.09;100339.28;5226688;28;20693;-73
2020/12/27 00:06:18;;;;;;;5.68;3.90;;;;;;;3.75;93.11;100328.66;5226304;28;20037;-71
2020/12/27 00:08:50;;;;;;;5.75;4.00;;;;;;;3.71;93.99;100316.78;5226436;28;20038;-71
2020/12/27 00:11:23;;;;;;;4.35;3.95;;;;;;;3.75;94.64;100314.84;5225719;28;20052;-71
2020/12/27 00:13:55;;;;;;;4.20;3.80;;;;;;;3.74;92.71;100302.81;5224615;28;20536;-72
2020/12/27 00:16:41;;;;;;;6.80;4.50;;;;;;;3.73;93.14;100290.81;5225516;28;20049;-71
2020/12/27 00:19:25;;;;;;;6.10;4.00;;;;;;;3.72;91.92;100289.97;5240212;28;20040;-71
2020/12/27 00:22:26;;;;;;;4.07;3.67;;;;;;;3.72;91.88;100283.97;5225078;28;20026;-71
2020/12/27 00:25:00;;;;;;;4.65;3.72;;;;;;;3.70;92.18;100273.69;5223400;28;20061;-72
2020/12/27 00:27:39;;;;;;;3.70;3.30;;;;;;;3.70;91.35;100259.91;5227375;28;20107;-72
2020/12/27 00:30:26;;;;;;;4.32;3.47;;;;;;;3.71;90.82;100271.91;5214991;28;20044;-72
2020/12/27 00:33:03;;;;;;;4.07;3.38;;;;;;;3.64;91.76;100253.38;5224516;28;20482;-72
2020/12/27 00:35:39;;;;;;;4.63;3.70;;;;;;;3.66;91.43;100254.09;5226723;28;20467;-71
2020/12/27 00:38:18;;;;;;;3.40;3.10;;;;;;;3.63;92.07;100224.03;5223050;28;21128;-72
2020/12/27 00:41:01;;;;;;;4.80;3.67;;;;;;;3.64;90.95;100219.72;5225892;28;20601;-72
2020/12/27 00:43:44;;;;;;;4.95;4.07;;;;;;;3.62;91.33;100195.66;5226452;28;20573;-71
2020/12/27 00:46:21;;;;;;;5.05;4.10;;;;;;;3.60;91.94;100187.16;5223137;28;20033;-71
2020/12/27 00:48:55;;;;;;;5.50;4.28;;;;;;;3.60;91.35;100184.56;5224660;28;20445;-71
2020/12/27 00:51:46;;;;;;;5.05;4.20;;;;;;;3.58;92.78;100169.13;5225019;28;20029;-71
2020/12/27 00:54:20;;;;;;;5.80;4.45;;;;;;;3.56;92.42;100173.59;5214999;28;20026;-73
2020/12/27 00:56:58;;;;;;;5.68;4.20;;;;;;;3.58;92.30;100157.94;5224151;28;20514;-73
2020/12/27 00:59:44;;;;;;;6.18;4.45;;;;;;;3.56;92.15;100139.91;5221606;28;20025;-71
2020/12/27 01:02:18;;;;;;;6.25;4.90;;;;;;;3.56;92.99;100146.84;5222651;28;20028;-71
2020/12/27 01:04:56;;;;;;;7.75;4.95;;;;;;;3.58;92.75;100137.22;5225893;28;20485;-73
2020/12/27 01:07:32;;;;;;;5.80;5.15;;;;;;;3.58;92.02;100119.09;5224397;28;20694;-71
2020/12/27 01:10:07;;;;;;;5.85;5.20;;;;;;;3.57;91.68;100092.38;5223978;28;20579;-71
2020/12/27 01:12:41;;;;;;;5.63;4.90;;;;;;;3.56;92.67;100067.41;5223927;28;20094;-72
2020/12/27 01:15:31;;;;;;;6.50;5.20;;;;;;;3.57;92.01;100056.09;5222526;28;20084;-71
2020/12/27 01:18:08;;;;;;;6.30;4.93;;;;;;;3.59;92.54;100061.16;5228770;28;20866;-72
2020/12/27 01:20:42;;;;;;;6.25;5.63;;;;;;;3.57;93.00;100043.16;5220817;28;20084;-71
2020/12/27 01:23:16;;;;;;;6.38;5.28;;;;;;;3.59;91.85;100030.91;5224504;28;20037;-71
2020/12/27 01:25:50;;;;;;;6.75;5.60;;;;;;;3.57;92.00;100025.03;5226789;28;20119;-72
2020/12/27 01:28:24;;;;;;;6.03;5.43;;;;;;;3.56;92.11;100015.59;5223663;28;20044;-71
2020/12/27 01:31:01;;;;;;;6.28;5.35;;;;;;;3.58;92.21;100005.97;5221008;28;20041;-71
2020/12/27 01:33:34;;;;;;;6.28;5.28;;;;;;;3.61;91.05;100008.34;5219855;28;20506;-71
2020/12/27 01:36:29;;;;;;;6.93;5.55;;;;;;;3.59;92.11;100002.41;5222620;28;20041;-71
2020/12/27 01:39:18;;;;;;;7.43;5.72;;;;;;;3.59;91.88;99994.66;5212384;28;20486;-71
2020/12/27 01:42:01;;;;;;;6.90;5.18;;;;;;;3.58;92.33;99974.06;5223767;28;20045;-71
2020/12/27 01:44:45;;;;;;;8.93;5.65;;;;;;;3.58;91.41;99968.88;5223045;28;20030;-73
2020/12/27 01:47:26;;;;;;;6.25;5.03;;;;;;;3.59;92.06;99967.94;5222891;28;20068;-71
2020/12/27 01:50:00;;;;;;;8.13;5.35;;;;;;;3.55;92.57;99954.38;5224851;28;20083;-72
2020/12/27 01:52:32;;;;;;;7.47;5.43;;;;;;;3.53;92.94;99945.06;5222249;28;20143;-71
2020/12/27 01:55:06;;;;;;;6.55;5.20;;;;;;;3.56;91.49;99950.88;5222199;28;20108;-72
2020/12/27 01:58:08;;;;;;;8.02;5.70;;;;;;;3.56;91.54;99942.25;5221797;28;20687;-74
2020/12/27 02:00:50;;;;;;;6.75;5.35;;;;;;;3.57;91.41;99939.56;5220792;28;20038;-71
2020/12/27 02:03:24;;;;;;;5.63;4.30;;;;;;;3.56;92.24;99924.13;5225631;28;20033;-72
2020/12/27 02:06:05;;;;;;;6.20;4.93;;;;;;;3.55;92.17;99925.88;5222357;28;20033;-71
2020/12/27 02:08:39;;;;;;;6.30;5.22;;;;;;;3.54;93.19;99920.81;5221104;28;20113;-72
2020/12/27 02:11:10;;;;;;;7.00;4.65;;;;;;;3.54;91.78;99903.50;5221777;28;20494;-72
2020/12/27 02:13:56;;;;;;;6.30;4.68;;;;;;;3.56;92.64;99918.94;5222223;28;20034;-72
2020/12/27 02:16:30;;;;;;;5.82;4.72;;;;;;;3.56;91.38;99893.88;5228046;28;20044;-71
2020/12/27 02:19:06;;;;;;;5.75;4.38;;;;;;;3.58;90.89;99888.59;5218635;28;20497;-71
2020/12/27 02:21:42;;;;;;;5.32;4.50;;;;;;;3.54;92.37;99877.63;5222167;28;20017;-71
2020/12/27 02:24:18;;;;;;;5.72;4.63;;;;;;;3.54;91.43;99856.91;5220813;28;20091;-71
2020/12/27 02:26:56;;;;;;;5.15;4.10;;;;;;;3.55;91.42;99843.00;5221163;28;20052;-71
2020/12/27 02:29:36;;;;;;;5.90;4.47;;;;;;;3.53;91.11;99825.94;5222395;28;20033;-71
2020/12/27 02:32:10;;;;;;;5.05;3.70;;;;;;;3.53;90.87;99824.19;5225225;28;20046;-71
2020/12/27 02:34:43;;;;;;;5.05;3.80;;;;;;;3.52;89.76;99806.16;5221736;28;20033;-71
2020/12/27 02:37:29;;;;;;;6.03;4.70;;;;;;;3.53;91.19;99790.53;5222126;28;20061;-71
2020/12/27 02:40:09;;;;;;;4.78;3.95;;;;;;;3.51;90.95;99787.19;5212553;28;20112;-71
2020/12/27 02:42:54;;;;;;;4.88;3.78;;;;;;;3.52;91.00;99767.31;5222745;28;20053;-71
2020/12/27 02:45:25;;;;;;;4.43;3.92;;;;;;;3.51;90.37;99752.72;5230090;28;20030;-71
2020/12/27 02:48:10;;;;;;;7.18;3.78;;;;;;;3.53;91.39;99767.22;5223103;28;20033;-71
2020/12/27 02:50:44;;;;;;;4.68;4.13;;;;;;;3.52;91.57;99752.59;5223694;28;20037;-71
2020/12/27 02:53:16;;;;;;;6.13;3.92;;;;;;;3.47;91.70;99735.75;5225741;28;20061;-72
2020/12/27 02:56:03;;;;;;;6.47;3.60;;;;;;;3.53;91.58;99724.97;5225982;28;20077;-73
2020/12/27 02:58:40;;;;;;;4.30;3.70;;;;;;;3.46;91.63;99713.41;5225557;28;20034;-71
2020/12/27 03:01:20;;;;;;;4.50;3.60;;;;;;;3.50;91.21;99694.94;5221008;28;20061;-71
2020/12/27 03:03:54;;;;;;;4.88;3.67;;;;;;;3.50;91.18;99681.97;5221926;28;20029;-72
2020/12/27 03:06:34;;;;;;;5.38;3.67;;;;;;;3.46;92.51;99659.84;5237738;28;20034;-70
2020/12/27 03:09:22;;;;;;;5.40;3.80;;;;;;;3.46;94.06;99652.06;5217899;28;20025;-71
2020/12/27 03:12:00;;;;;;;5.18;3.95;;;;;;;3.44;95.16;99632.41;5225684;28;20035;-72
2020/12/27 03:14:34;;;;;;;4.78;3.90;;;;;;;3.40;94.73;99621.44;5218098;28;20033;-71
2020/12/27 03:17:09;;;;;;;6.57;3.95;;;;;;;3.38;96.51;99631.94;5224991;28;20068;-71
2020/12/27 03:19:47;;;;;;;4.65;4.03;;;;;;;3.37;96.21;99616.50;5224062;28;20029;-71
2020/12/27 03:22:36;;;;;;;4.45;3.67;;;;;;;3.37;95.05;99601.81;5225690;28;20037;-71
2020/12/27 03:25:11;;;;;;;9.07;4.55;;;;;;;3.33;98.14;99597.81;5225806;28;20132;-72
2020/12/27 03:27:42;;;;;;;6.60;4.40;;;;;;;3.34;99.47;99596.88;5224250;28;20041;-71
2020/12/27 03:30:18;;;;;;;6.78;4.10;;;;;;;3.30;99.05;99590.28;5224561;28;20659;-71
2020/12/27 03:32:50;;;;;;;5.85;4.22;;;;;;;3.32;97.20;99566.84;5225842;28;20033;-71
2020/12/27 03:35:29;;;;;;;4.38;3.78;;;;;;;3.36;97.88;99568.25;5224586;28;20467;-72
2020/12/27 03:38:08;;;;;;;5.75;3.67;;;;;;;3.31;97.88;99541.91;5227529;28;20029;-73
2020/12/27 03:40:53;;;;;;;4.70;3.90;;;;;;;3.36;96.92;99530.25;5223291;28;20045;-72
2020/12/27 03:43:29;;;;;;;4.75;3.78;;;;;;;3.35;96.10;99520.03;5222530;28;20053;-71
2020/12/27 03:46:18;;;;;;;7.10;4.60;;;;;;;3.41;97.25;99515.22;5226512;28;20033;-71
2020/12/27 03:48:57;;;;;;;5.07;3.58;;;;;;;3.41;96.19;99491.09;5227936;28;20025;-72
2020/12/27 03:51:58;;;;;;;4.68;3.92;;;;;;;3.42;96.34;99472.84;5225622;28;20038;-71
2020/12/27 03:54:38;;;;;;;3.75;3.30;;;;;;;3.40;95.42;99459.19;5212402;28;20057;-71
2020/12/27 03:57:12;;;;;;;7.18;3.40;;;;;;;3.48;95.68;99453.41;5223737;28;20072;-71
2020/12/27 03:59:51;;;;;;;4.05;2.85;;;;;;;3.51;94.20;99455.75;5225222;28;20021;-73
2020/12/27 04:02:37;;;;;;;3.63;2.80;;;;;;;3.49;94.79;99452.47;5221258;28;20156;-71
2020/12/27 04:05:14;;;;;;;4.63;3.15;;;;;;;3.51;94.27;99424.69;5224272;28;20029;-71
2020/12/27 04:07:45;;;;;;;4.35;2.75;;;;;;;3.54;93.29;99432.22;5224789;28;20029;-71
2020/12/27 04:10:23;;;;;;;4.80;2.83;;;;;;;3.56;93.58;99429.50;5220579;28;20044;-71
2020/12/27 04:13:02;;;;;;;3.97;2.55;;;;;;;3.61;94.28;99414.44;5224688;28;20108;-72
2020/12/27 04:15:34;;;;;;;3.33;2.17;;;;;;;3.59;94.73;99405.97;5221845;28;20026;-73
2020/12/27 04:18:08;;;;;;;3.45;2.08;;;;;;;3.63;94.66;99407.38;5226239;28;20506;-71
2020/12/27 04:20:45;;;;;;;3.58;2.40;;;;;;;3.63;94.26;99403.00;5225528;28;20033;-71
2020/12/27 04:23:19;;;;;;;3.15;2.30;;;;;;;3.64;93.99;99391.72;5213295;28;20059;-71
2020/12/27 04:25:50;;;;;;;3.42;2.25;;;;;;;3.69;94.30;99386.16;5252088;23;20072;-72
2020/12/27 04:28:22;;;;;;;2.88;2.00;;;;;;;3.70;93.22;99402.53;5248726;28;20344;-71
2020/12/27 04:30:53;;;;;;;3.28;2.05;;;;;;;3.71;92.77;99384.25;5253686;28;20047;-72
2020/12/27 04:33:24;;;;;;;4.80;1.80;;;;;;;3.73;93.52;99372.03;5254267;28;20471;-70
2020/12/27 04:35:55;;;;;;;3.45;2.05;;;;;;;3.76;92.40;99366.59;5245306;28;20536;-72
2020/12/27 04:38:27;;;;;;;3.03;1.83;;;;;;;3.78;90.93;99350.94;5243945;28;20033;-72
2020/12/27 04:41:00;;;;;;;2.22;1.70;;;;;;;3.82;91.40;99340.19;5245389;28;20068;-72
2020/12/27 04:43:35;;;;;;;2.90;1.70;;;;;;;3.84;90.15;99334.91;5241158;28;20036;-72
2020/12/27 04:46:09;;;;;;;2.22;1.42;;;;;;;3.81;91.07;99327.38;5243377;28;20119;-72
2020/12/27 04:48:42;;;;;;;3.53;1.65;;;;;;;3.82;90.59;99327.25;5244781;28;20020;-72
2020/12/27 04:51:13;;;;;;;2.30;1.52;;;;;;;3.81;93.65;99306.66;5259732;28;20035;-72
2020/12/27 04:53:45;;;;;;;2.55;1.25;;;;;;;3.82;93.69;99318.66;5240866;28;20397;-73
2020/12/27 04:56:18;;;;;;;2.53;1.40;;;;;;;3.79;94.92;99303.34;5245438;28;20572;-73
2020/12/27 04:58:49;;;;;;;2.70;1.50;;;;;;;3.77;95.90;99294.91;5246353;28;20601;-73
2020/12/27 05:01:21;;;;;;;2.55;1.30;;;;;;;3.76;96.17;99281.13;5233338;28;20029;-73
2020/12/27 05:03:55;;;;;;;2.08;1.30;;;;;;;3.66;97.65;99265.50;5242269;28;20044;-73
2020/12/27 05:06:26;;;;;;;3.10;1.30;;;;;;;3.72;98.36;99276.34;5240130;28;20044;-74
2020/12/27 05:08:59;;;;;;;1.90;0.93;;;;;;;3.69;97.65;99259.25;5244424;28;20037;-72
2020/12/27 05:11:30;;;;;;;1.80;1.10;;;;;;;3.69;98.54;99258.44;5244738;28;20078;-71
2020/12/27 05:14:03;;;;;;;1.60;1.00;;;;;;;3.68;99.71;99239.50;5238582;28;20570;-73
2020/12/27 05:16:35;;;;;;;;;;;;;;;3.68;100.00;99221.38;5240992;28;20059;-72
2020/12/27 05:19:07;;;;;;;2.15;0.98;;;;;;;3.60;100.00;99206.47;5242665;28;19939;-71
2020/12/27 05:21:38;;;;;;;1.88;1.00;;;;;;;3.60;100.00;99201.28;5244965;28;20040;-71
2020/12/27 05:24:10;;;;;;;2.28;1.00;;;;;;;3.61;100.00;99199.50;5245256;28;20029;-70
2020/12/27 05:26:41;;;;;;;1.73;0.90;;;;;;;3.61;100.00;99192.56;5243681;28;20037;-72
2020/12/27 05:29:35;;;;;;;1.80;0.80;;;;;;;3.64;99.39;99181.13;5244890;28;20537;-71
2020/12/27 05:32:06;;;;;;;1.58;0.88;;;;;;;3.61;100.00;99165.84;5243703;28;20037;-71
2020/12/27 05:34:37;;;;;;;1.30;0.80;;;;;;;3.61;100.00;99156.31;5241403;28;20037;-72
2020/12/27 05:37:15;;;;;;;1.65;1.00;;;;;;;3.56;100.00;99152.44;5243800;28;20053;-72
2020/12/27 05:39:47;;;;;;;1.20;0.80;;;;;;;3.58;100.00;99135.84;5244995;28;20029;-72
2020/12/27 05:42:25;;;;;;;2.53;1.13;;;;;;;3.59;100.00;99121.13;5241655;28;20056;-72
2020/12/27 05:44:56;;;;;;;2.33;1.00;;;;;;;3.57;100.00;99121.25;5239452;28;20057;-72
2020/12/27 05:47:31;;;;;;;1.50;0.82;;;;;;;3.57;100.00;99113.50;5242653;28;20060;-72
2020/12/27 05:50:03;;;;;;;1.65;0.77;;;;;;;3.52;100.00;99105.28;5243069;28;20039;-72
2020/12/27 05:52:35;;;;;;;2.00;0.73;;;;;;;3.57;100.00;99100.53;5244141;28;20025;-72
2020/12/27 05:55:08;;;;;;;1.60;1.10;;;;;;;3.58;100.00;99086.66;5241484;28;20593;-72
2020/12/27 05:57:40;;;;;;;1.42;0.70;;;;;;;3.57;100.00;99064.31;5244150;28;20037;-72
2020/12/27 06:00:16;;;;;;;1.35;0.77;;;;;;;3.59;100.00;99071.94;5243336;28;20502;-72
2020/12/27 06:02:58;;;;;;;1.10;0.60;;;;;;;3.57;100.00;99064.31;5239974;28;20503;-72
2020/12/27 06:05:54;;;;;;;3.20;0.80;;;;;;;3.59;100.00;99056.38;5242751;28;20694;-72
2020/12/27 06:08:28;;;;;;;1.27;0.70;;;;;;;3.60;100.00;99020.03;5244396;28;20036;-71
2020/12/27 06:11:21;;;;;;;1.23;0.73;;;;;;;3.55;100.00;99008.41;5243006;28;20029;-71
2020/12/27 06:14:14;;;;;;;0.93;0.52;;;;;;;3.59;100.00;98992.47;5241578;28;20025;-71
2020/12/27 06:16:45;;;;;;;1.20;0.50;;;;;;;3.57;100.00;98999.56;5245493;28;20124;-71
2020/12/27 06:19:23;;;;;;;2.23;0.80;;;;;;;3.57;100.00;98986.63;5242115;28;20111;-71
2020/12/27 06:22:05;;;;;;;1.38;0.60;;;;;;;3.56;100.00;98974.63;5246188;28;20283;-71
2020/12/27 06:24:38;;;;;;;1.10;0.60;;;;;;;3.56;100.00;98972.03;5240752;28;20079;-72
2020/12/27 06:27:09;;;;;;;1.65;0.70;;;;;;;3.56;100.00;98948.75;5248182;28;20351;-71
2020/12/27 06:29:48;;;;;;;1.02;0.52;;;;;;;3.60;100.00;98942.34;5247230;28;20389;-71
2020/12/27 06:32:25;;;;;;;1.58;0.70;;;;;;;3.60;100.00;98934.59;5247852;28;20530;-71
2020/12/27 06:34:56;;;;;;;1.88;0.73;;;;;;;3.54;100.00;98921.34;5247020;28;20120;-72
2020/12/27 06:37:37;;;;;;;1.52;0.70;;;;;;;3.58;100.00;98899.41;5246253;28;20086;-71
2020/12/27 06:40:09;;;;;;;1.10;0.57;;;;;;;3.58;100.00;98897.63;5246668;28;20069;-72
2020/12/27 06:42:41;;;;;;;1.00;0.60;;;;;;;3.60;100.00;98889.75;5245968;28;20063;-72
2020/12/27 06:45:29;;;;;;;1.60;0.52;;;;;;;3.63;100.00;98884.28;5244427;28;20458;-72
2020/12/27 06:48:01;;;;;;;1.10;0.60;;;;;;;3.64;100.00;98873.00;5248874;28;20034;-72
2020/12/27 06:50:43;;;;;;;1.90;0.63;;;;;;;3.65;100.00;98864.25;5248780;28;20024;-71
2020/12/27 06:53:36;;;;;;;1.13;0.60;;;;;;;3.68;100.00;98860.59;5248871;28;20197;-72
2020/12/27 06:56:13;;;;;;;1.30;0.60;;;;;;;3.68;100.00;98824.34;5240850;28;20076;-72
2020/12/27 06:59:00;;;;;;;1.65;0.68;;;;;;;3.66;100.00;98822.69;5246270;28;20036;-73
2020/12/27 07:01:32;;;;;;;1.02;0.50;;;;;;;3.69;100.00;98823.38;5241873;28;20032;-73
2020/12/27 07:04:14;;;;;;;0.65;0.40;;;;;;;3.76;100.00;98822.69;5244435;28;20021;-70
2020/12/27 07:06:49;;;;;;;1.38;0.50;;;;;;;3.80;100.00;98805.13;5245944;28;20541;-70
2020/12/27 07:09:22;;;;;;;1.00;0.50;;;;;;;3.74;100.00;98790.09;5243504;28;20035;-70
2020/12/27 07:12:04;;;;;;;;;;;;;;;3.81;100.00;98788.59;5244618;28;20059;-70
2020/12/27 07:14:40;;;;;;;1.25;0.55;;;;;;;3.74;100.00;98765.03;5243350;28;19924;-69
2020/12/27 07:17:11;;;;;;;2.30;0.60;;;;;;;3.80;100.00;98771.44;5244789;28;20029;-70
2020/12/27 07:19:43;;;;;;;1.02;0.52;;;;;;;3.78;100.00;98776.75;5245831;28;20039;-70
2020/12/27 07:22:14;;;;;;;1.25;0.50;;;;;;;3.79;100.00;98754.25;5245440;28;20536;-69
2020/12/27 07:24:47;;;;;;;0.70;0.40;;;;;;;3.78;100.00;98731.91;5246969;28;20045;-69
2020/12/27 07:27:19;;;;;;;0.82;0.50;;;;;;;3.78;100.00;98734.50;5247871;28;20048;-71
2020/12/27 07:29:56;;;;;;;0.82;0.50;;;;;;;3.74;100.00;98718.41;5243720;28;20035;-70
2020/12/27 07:32:29;;;;;;;0.90;0.43;;;;;;;3.80;100.00;98727.41;5245725;28;20036;-69
2020/12/27 07:35:00;;;;;;;1.10;0.40;;;;;;;3.81;100.00;98693.59;5246665;28;20063;-70
2020/12/27 07:37:31;;;;;;;0.60;0.40;;;;;;;3.83;100.00;98677.94;5248713;28;20717;-70
2020/12/27 07:40:06;;;;;;;0.60;0.40;;;;;;;3.84;100.00;98658.84;5246247;28;20029;-73
2020/12/27 07:42:37;;;;;;;0.82;0.40;;;;;;;3.83;100.00;98660.59;5246144;28;20112;-74
2020/12/27 07:45:13;;;;;;;0.70;0.40;;;;;;;3.76;100.00;98638.81;5247670;28;20029;-72
2020/12/27 07:47:44;;;;;;;0.50;0.30;;;;;;;3.87;100.00;98645.59;5246020;28;20040;-73
2020/12/27 07:50:17;;;;;;;1.10;0.40;;;;;;;3.89;99.14;98622.94;5245416;28;20482;-73
2020/12/27 07:52:50;;;;;;;1.00;0.45;;;;;;;3.89;100.00;98636.72;5236247;28;20817;-73
2020/12/27 07:55:32;;;;;;;0.85;0.40;;;;;;;3.90;100.00;98637.53;5245120;28;20034;-72
2020/12/27 07:58:05;;;;;;;0.95;0.40;;;;;;;3.94;99.57;98609.56;5246569;28;20033;-72
2020/12/27 08:00:40;;;;;;;0.85;0.38;;;;;;;3.90;97.96;98609.03;5241915;28;20033;-74
2020/12/27 08:03:11;;;;;;;0.70;0.45;;;;;;;3.93;98.93;98590.63;5246691;28;20391;-73
2020/12/27 08:05:42;;;;;;;1.00;0.30;;;;;;;3.95;99.87;98595.69;5243486;28;20029;-72
2020/12/27 08:08:14;;;;;;;0.52;0.38;;;;;;;3.96;98.13;98585.16;5244019;28;20036;-72
2020/12/27 08:10:45;;;;;;;0.45;0.32;;;;;;;3.97;97.38;98573.81;5248234;28;20036;-72
2020/12/27 08:13:20;;;;;;;0.60;0.35;;;;;;;3.99;99.29;98556.38;5246455;28;20592;-71
2020/12/27 08:15:51;;;;;;;1.33;0.50;;;;;;;4.00;98.36;98565.78;5240706;28;20032;-71
2020/12/27 08:18:22;;;;;;;1.05;0.40;;;;;;;4.04;98.48;98559.34;5245717;28;20029;-71
2020/12/27 08:20:54;;;;;;;0.60;0.38;;;;;;;4.05;97.51;98535.09;5243913;28;20507;-72
2020/12/27 08:23:25;;;;;;;0.63;0.40;;;;;;;4.05;99.72;98548.03;5242151;28;20386;-71
2020/12/27 08:25:57;;;;;;;1.27;0.40;;;;;;;4.02;98.08;98513.84;5245088;28;20502;-71
2020/12/27 08:28:28;;;;;;;1.30;0.40;;;;;;;4.05;100.00;98519.53;5244479;28;20025;-71
2020/12/27 08:31:00;;;;;;;0.68;0.40;;;;;;;4.09;99.54;98496.72;5243702;28;20072;-72
2020/12/27 08:33:31;;;;;;;1.63;0.52;;;;;;;4.07;99.08;98501.25;5243812;28;20033;-71
2020/12/27 08:36:04;;;;;;;1.27;0.40;;;;;;;4.09;99.88;98486.34;5245554;28;20029;-71
2020/12/27 08:38:49;;;;;;;0.60;0.40;;;;;;;4.12;100.00;98491.25;5244966;28;20101;-71
2020/12/27 08:41:27;;;;;;;1.33;0.60;;;;;;;4.08;100.00;98477.78;5241518;28;20033;-70
2020/12/27 08:44:10;;;;;;;0.60;0.40;;;;;;;4.09;100.00;98458.69;5244885;28;20462;-71
2020/12/27 08:46:47;;;;;;;0.70;0.40;;;;;;;4.14;98.67;98474.59;5242045;28;20033;-70
2020/12/27 08:49:39;;;;;;;0.90;0.50;;;;;;;4.10;99.30;98443.97;5243556;28;20053;-70
2020/12/27 08:52:19;;;;;;;1.67;0.50;;;;;;;4.07;100.00;98436.47;5244632;28;20438;-70
2020/12/27 08:54:58;;;;;;;2.95;0.50;;;;;;;4.05;100.00;98434.03;5241783;28;20055;-70
2020/12/27 08:57:30;;;;;;;0.40;0.30;;;;;;;4.03;100.00;98407.44;5245162;28;20079;-70
2020/12/27 09:00:12;;;;;;;2.55;0.60;;;;;;;4.03;100.00;98423.00;5246046;28;20025;-71
2020/12/27 09:02:43;;;;;;;0.77;0.43;;;;;;;4.02;100.00;98399.84;5244522;28;20028;-71
2020/12/27 09:05:14;;;;;;;2.25;0.68;;;;;;;4.02;100.00;98384.28;5244460;28;20095;-70
2020/12/27 09:07:46;;;;;;;0.98;0.47;;;;;;;3.98;100.00;98388.13;5244105;28;20043;-70
2020/12/27 09:10:28;;;;;;;0.85;0.45;;;;;;;4.02;100.00;98384.28;5244973;28;20044;-70
2020/12/27 09:13:13;;;;;;;0.65;0.40;;;;;;;3.96;100.00;98388.28;5248898;28;20024;-70
2020/12/27 09:15:49;;;;;;;1.10;0.55;;;;;;;3.98;100.00;98359.63;5246045;28;20501;-70
2020/12/27 09:18:30;;;;;;;1.20;0.60;;;;;;;4.03;100.00;98378.94;5244731;28;20028;-70
2020/12/27 09:21:05;;;;;;;0.73;0.38;;;;;;;4.00;100.00;98366.28;5244673;28;20262;-71
2020/12/27 09:23:36;;;;;;;1.15;0.55;;;;;;;3.95;100.00;98362.53;5243305;28;20128;-71
2020/12/27 09:26:09;;;;;;;3.65;0.60;;;;;;;3.96;100.00;98356.38;5242917;28;20078;-71
2020/12/27 09:28:41;;;;;;;1.00;0.40;;;;;;;3.90;100.00;98350.84;5244396;28;20029;-70
2020/12/27 09:31:13;;;;;;;1.52;0.50;;;;;;;3.94;100.00;98333.22;5241530;28;20039;-70
2020/12/27 09:33:48;;;;;;;1.90;0.60;;;;;;;3.89;100.00;98335.44;5244978;28;20068;-70
2020/12/27 09:36:19;;;;;;;1.05;0.40;;;;;;;3.97;100.00;98324.31;5243042;28;20041;-70
2020/12/27 09:38:51;;;;;;;1.50;0.55;;;;;;;4.03;100.00;98323.75;5241903;28;20604;-70
2020/12/27 09:41:24;;;;;;;1.13;0.40;;;;;;;4.02;100.00;98307.38;5242813;28;20057;-70
2020/12/27 09:43:59;;;;;;;;;;;;;;;4.03;100.00;98313.38;5239663;28;20025;-71
2020/12/27 09:46:47;;;;;;;1.23;0.60;;;;;;;3.99;100.00;98318.03;5228011;28;20007;-71
2020/12/27 09:49:25;;;;;;;3.08;0.60;;;;;;;3.99;100.00;98289.56;5240516;28;20086;-71
2020/12/27 09:52:12;;;;;;;1.02;0.50;;;;;;;4.06;100.00;98297.53;5241536;28;20048;-71
2020/12/27 09:54:44;;;;;;;2.67;0.60;;;;;;;4.00;100.00;98283.41;5242258;28;20033;-71
2020/12/27 09:57:16;;;;;;;0.90;0.30;;;;;;;4.00;100.00;98265.25;5248870;28;20083;-71
2020/12/27 09:59:49;;;;;;;1.00;0.60;;;;;;;3.99;100.00;98261.06;5244787;28;20032;-71
2020/12/27 10:02:24;;;;;;;1.00;0.38;;;;;;;3.99;100.00;98244.69;5239743;28;20025;-71
2020/12/27 10:04:55;;;;;;;1.38;0.60;;;;;;;3.95;100.00;98213.09;5241659;28;20563;-71
2020/12/27 10:07:27;;;;;;;0.82;0.45;;;;;;;4.06;100.00;98227.59;5240254;28;20029;-72
2020/12/27 10:09:58;;;;;;;1.65;0.63;;;;;;;4.02;100.00;98224.50;5244651;28;20358;-71
2020/12/27 10:12:30;;;;;;;1.70;0.60;;;;;;;4.05;100.00;98223.34;5239045;28;20517;-71
2020/12/27 10:15:06;;;;;;;1.35;0.60;;;;;;;4.01;100.00;98207.28;5241672;28;20025;-71
2020/12/27 10:17:37;;;;;;;0.98;0.52;;;;;;;3.97;100.00;98169.72;5238869;28;20120;-71
2020/12/27 10:20:10;;;;;;;1.52;0.57;;;;;;;4.02;100.00;98177.84;5239912;28;20083;-73
2020/12/27 10:22:41;;;;;;;0.95;0.47;;;;;;;4.05;100.00;98193.09;5236541;28;20033;-71
2020/12/27 10:25:13;;;;;;;1.00;0.60;;;;;;;4.02;100.00;98164.91;5238608;28;20051;-72
2020/12/27 10:27:44;;;;;;;0.73;0.40;;;;;;;4.05;100.00;98150.81;5237794;28;20080;-72
2020/12/27 10:30:15;;;;;;;1.27;0.40;;;;;;;4.12;100.00;98151.81;5239507;28;20028;-72
2020/12/27 10:32:46;;;;;;;1.70;0.50;;;;;;;4.09;100.00;98132.22;5238757;28;20445;-71
2020/12/27 10:35:18;;;;;;;0.60;0.40;;;;;;;4.10;100.00;98125.28;5238825;28;20394;-71
2020/12/27 10:37:49;;;;;;;1.35;0.30;;;;;;;4.13;100.00;98117.19;5240148;28;20372;-72
2020/12/27 10:40:20;;;;;;;1.20;0.50;;;;;;;4.14;100.00;98111.03;5241684;28;20687;-72
2020/12/27 10:42:51;;;;;;;1.13;0.40;;;;;;;4.13;100.00;98110.22;5241137;28;20478;-71
2020/12/27 10:45:23;;;;;;;0.73;0.40;;;;;;;4.16;100.00;98101.31;5237936;28;20079;-71
2020/12/27 10:47:54;;;;;;;0.70;0.40;;;;;;;4.15;100.00;98108.28;5241487;28;20033;-71
2020/12/27 10:50:26;;;;;;;0.80;0.47;;;;;;;4.14;100.00;98095.50;5238093;28;20461;-71
2020/12/27 10:52:57;;;;;;;0.77;0.40;;;;;;;4.02;100.00;98069.06;5237750;28;20029;-71
2020/12/27 10:55:28;;;;;;;1.30;0.40;;;;;;;4.17;100.00;98083.97;5239643;28;20200;-71
2020/12/27 10:57:59;;;;;;;0.70;0.40;;;;;;;4.15;100.00;98081.56;5241108;28;20087;-71
2020/12/27 11:00:31;;;;;;;2.05;0.70;;;;;;;4.24;99.85;98051.28;5238842;28;20036;-71
2020/12/27 11:03:02;;;;;;;1.00;0.60;;;;;;;4.23;100.00;98070.41;5241963;28;20082;-71
2020/12/27 11:05:33;;;;;;;1.10;0.50;;;;;;;4.23;100.00;98049.66;5238752;28;20025;-71
2020/12/27 11:08:06;;;;;;;1.00;0.40;;;;;;;4.23;100.00;98049.66;5237725;28;20026;-71
2020/12/27 11:10:37;;;;;;;1.98;0.50;;;;;;;4.26;100.00;98036.41;5234857;28;20690;-71
2020/12/27 11:13:08;;;;;;;1.17;0.50;;;;;;;4.31;99.38;98014.22;5240126;28;20047;-71
2020/12/27 11:15:39;;;;;;;0.98;0.40;;;;;;;4.33;100.00;98011.47;5239922;28;20640;-71
2020/12/27 11:18:11;;;;;;;0.90;0.40;;;;;;;4.38;99.45;98007.41;5242913;28;20041;-70
2020/12/27 11:20:42;;;;;;;1.17;0.32;;;;;;;4.36;98.51;97983.47;5242838;28;20442;-71
2020/12/27 11:23:13;;;;;;;1.70;0.40;;;;;;;4.50;97.96;97983.78;5240313;28;20497;-71
2020/12/27 11:25:44;;;;;;;0.85;0.50;;;;;;;4.52;99.46;97982.66;5243218;28;20041;-71
2020/12/27 11:28:16;;;;;;;0.73;0.40;;;;;;;4.52;97.61;98003.38;5243637;28;20029;-71
2020/12/27 11:30:47;;;;;;;1.20;0.55;;;;;;;4.53;98.28;97980.88;5238199;28;20152;-72
2020/12/27 11:33:18;;;;;;;0.82;0.50;;;;;;;4.61;96.45;97954.94;5246474;28;20021;-72
2020/12/27 11:35:49;;;;;;;0.85;0.40;;;;;;;4.60;99.18;97963.69;5242581;28;20087;-71
2020/12/27 11:38:24;;;;;;;1.00;0.50;;;;;;;4.63;96.33;97938.25;5244010;28;20025;-73
2020/12/27 11:40:55;;;;;;;1.13;0.40;;;;;;;4.62;97.03;97949.59;5244228;28;20033;-71
2020/12/27 11:43:26;;;;;;;0.57;0.32;;;;;;;4.64;95.73;97942.44;5242289;28;20032;-71
2020/12/27 11:45:59;;;;;;;0.63;0.38;;;;;;;4.67;94.65;97932.75;5243888;28;20021;-71
2020/12/27 11:48:30;;;;;;;3.60;0.60;;;;;;;4.73;94.97;97937.25;5246441;28;20035;-71
2020/12/27 11:51:01;;;;;;;0.90;0.45;;;;;;;4.74;95.19;97923.34;5241658;28;20040;-72
2020/12/27 11:53:32;;;;;;;0.70;0.30;;;;;;;4.81;93.22;97916.47;5240191;28;21282;-73
2020/12/27 11:56:04;;;;;;;1.42;0.40;;;;;;;4.79;92.39;97892.50;5243026;28;20037;-73
2020/12/27 11:58:36;;;;;;;1.23;0.40;;;;;;;4.85;92.79;97899.66;5248274;28;20489;-73
2020/12/27 12:01:11;;;;;;;1.23;0.43;;;;;;;4.83;92.70;97888.63;5241263;28;20485;-72
2020/12/27 12:03:45;;;;;;;0.80;0.40;;;;;;;4.87;91.39;97863.97;5237908;28;20029;-71
2020/12/27 12:06:23;;;;;;;2.67;0.40;;;;;;;4.89;92.03;97854.22;5235788;28;20044;-71
2020/12/27 12:08:55;;;;;;;0.60;0.30;;;;;;;4.89;93.29;97862.03;5246697;28;20036;-72
2020/12/27 12:11:35;;;;;;;2.67;0.38;;;;;;;4.90;92.05;97845.47;5243677;28;20033;-73
2020/12/27 12:14:07;;;;;;;0.60;0.40;;;;;;;4.93;91.56;97828.78;5242063;28;20498;-72
2020/12/27 12:16:38;;;;;;;2.78;0.40;;;;;;;4.99;90.42;97825.47;5242196;28;20035;-72
2020/12/27 12:19:09;;;;;;;0.60;0.40;;;;;;;4.98;91.92;97837.66;5242971;28;20020;-73